Latest Observation

114 Stations

10 Minute Data
as of 9/4/26 1:20 PM PDT
Station Date Time Temp (°F) RH (%) Dew Pt (°F) Wind Spd (mph) Wind Dir (°) Wind Gust (mph) Wind Gst Dir (°) Latest Rain (In) Soil Moist (%) Soil Temp (°F) Daily Rain (In) Daily Min Temp (°F) Daily Max Temp (°F) Daily Max Wind (mph)
Hobart Mills 9/4/26 1320 53.3   1.6 69   11 43.3   2.8 6.1   2.1 SW | 232 16.6   1.6 SSW | 203 0.00 7.5   0.1 61.4   1.7 0.07 46.9   1.9 54.4   2.6 16.8   1.9
Prosser Dam 9/4/26 1320 55.0   2.8 62   10 42.4   1.9 6.6   0.1 SSW | 192 15.9   1.9 SSE | 160 0.00 5.1   0.1 60.0   0.9 0.16 48.1   2.0 55.4   4.1 17.8   3.7
West Incline Village 9/4/26 1320 47.5   3.1 80   17 41.5   3.1 3.9   1.4 SSW | 192 9.3   7.3 SE | 138 0.00 11.6   0.1 56.2   0.9 0.07 43.7   0.8 47.7   4.6 21.6   3.1
Incline Village (Fairview Blvd) 9/4/26 1320 50.5   2.5 72   12 41.9   2.3 3.4   0.4 SW | 231 10.1   4.2 WSW | 242 0.00 7.7   0.0 68.6   1.5 0.00 45.6   0.8 50.8   3.3 18.5   2.7
Incline Village (Diamond Peak) 9/4/26 1320 47.6   3.0 78   17 41.2   3.2 2.7   1.3 NNE | 18 6.0   6.5 N | 5 0.00 2.5   0.0 57.0   1.7 0.01 44.0   0.4 47.8   3.1 12.7   2.5
Incline Village (Mill Creek) 9/4/26 1320 52.8   2.3 68   10 42.4   1.9 3.9   0.4 W | 261 13.5   6.2 NW | 314 0.00 2.9   0.0 61.1   0.8 0.00 48.8   0.6 53.1   3.9 18.9   0.0
Incline Village (Lakeshore Blvd) 9/4/26 1320 54.6   2.0 72   10 46.0   1.9 6.2   0.8 SW | 231 9.9   2.5 WSW | 245 0.00 23.4   2.2 59.7   0.6 0.00 51.0   0.5 54.8   2.0 17.0   0.6
Glenbrook 9/4/26 1320 54.8   1.6 64   8 42.9   1.8 5.8   1.7 WSW | 240 13.0   6.1 WSW | 250 0.00 43.4   0.2 58.2   0.2 0.00 51.7   0.1 55.3   2.5 26.3   6.3
Zephyr Cove 9/4/26 1320 53.9   3.5 61   12 40.7   2.5 1.2   0.1 SSE | 147 7.6   0.9 ESE | 111 0.00 2.8   0.0 59.9   1.9 0.00 49.9   2.1 54.1   4.6 12.5   0.6
Kingsbury Grade 9/4/26 1320 51.9   5.9 65   18 40.7   2.9 1.3   2.0 SW | 235 7.3   2.2 WSW | 241 0.00 2.3   0.0 63.2   0.1 0.00 47.5   3.3 52.4   7.7 18.4   1.4
South Daggett Pass (Ridge) 9/4/26 1320 47.4   6.1 75   22 40.0   3.3 2.6   2.0 WNW | 297 11.9   9.4 WSW | 257 0.00 2.2   0.0 61.4   0.9 0.00 44.0   3.4 47.8   7.8 18.4   5.7
Palomino Valley 9/4/26 1320 66.9   1.8 38   5 40.8   1.7 10.9   8.2 S | 191 18.6   8.4 S | 189 0.00 6.5   0.0 73.1   0.1 0.00 54.1   2.5 67.8   1.9 19.8   8.7
East Cold Springs 9/4/26 1320 60.6   2.6 50   8 42.1   1.9 14.9   1.5 SW | 230 23.5   1.9 SW | 223 0.00 1.5   0.0 69.2   0.3 0.01 50.6   1.3 62.5   2.2 23.5   5.5
Peavine 9/4/26 1320 57.3   3.8 52   11 39.7   2.4 16.4   6.0 SW | 219 25.5   11.8 SSW | 203 0.00 4.2   0.1 64.0   2.3 0.05 50.0   1.2 58.1   3.8 32.8   14.0
West Verdi Peak 9/4/26 1420 53.8   2.7 71   18 44.5   5.1 2.2   2.4 SW | 220 8.4   11.0 W | 261 0.00 6.4   0.1 65.4   1.8 0.22 46.6   1.3 54.4   4.3 19.9   0.8
West Verdi 9/4/26 1320 60.4   2.7 55   11 44.0   3.3 7.2   3.3 SW | 230 16.0   8.4 SSW | 210 0.00 6.1   0.0 75.6   1.7 0.08 52.2   2.6 61.3   2.9 27.8   5.6
South Verdi 9/4/26 1320 58.7   2.0 53   7 41.5   1.8 20.8   2.3 SW | 225 30.2   4.1 SW | 227 0.00 10.1   0.1 66.6   2.0 0.03 51.5   1.9 59.8   2.0 34.9   7.3
Northwest Reno 9/4/26 1310 61.1   2.2 47   5 40.9   1.0 27.8   5.6 WSW | 244 37.9   6.5 W | 271 0.00 24.4   0.2 72.0   1.2 0.00 54.3   0.8 62.9   1.2 37.9   12.7
North Lawton 8/28/26 1620 63.8   17.1 74   52 55.4   16.5 1.5   11.6 ESE | 121 5.1   19.0 SE | 124 0.00 - 78.2   0.0 0.05 59.2   7.5 71.9   13.3 20.4   4.6
West Reno (Mogul) 9/4/26 1310 61.7   3.9 47   7 41.1   0.7 10.5   4.3 WSW | 241 26.1   5.5 SSW | 212 0.00 19.5   0.0 76.9   0.4 0.00 53.2   2.1 63.6   2.5 26.1   6.1
Caughlin (Hunter Lake Trail) 9/4/26 1310 60.2   3.4 49   7 40.9   1.1 5.7   10.3 SW | 236 16.2   21.2 W | 271 0.00 16.2   0.1 70.9   0.5 0.00 52.6   2.4 60.7   3.7 20.6   16.8
ArrowCreek 9/4/26 1310 61.7   4.3 46   8 40.7   1.0 17.4   1.1 SSE | 167 29.6   2.0 SSE | 163 0.00 - 32.0   0.0 0.00 56.1   2.9 62.2   4.7 30.7   0.9
Tracy 9/4/26 1320 68.9   3.3 37   7 41.8   2.7 16.8   1.0 WSW | 238 24.1   0.6 SW | 233 0.00 15.6   0.1 75.6   0.2 0.00 62.2   3.9 69.5   3.6 30.8   2.6
Virginia Highlands 9/4/26 1320 58.4   2.7 49   6 39.5   1.1 9.7   0.2 WSW | 248 23.6   1.0 WSW | 250 0.00 7.8   0.1 72.3   0.3 0.00 53.4   4.2 59.3   2.9 25.6   3.0
Virginia City 9/4/26 1320 58.4   3.8 47   7 38.2   1.0 10.0   2.8 SW | 234 22.5   0.1 WSW | 250 0.00 4.6   0.1 70.2   0.4 0.00 52.8   3.0 59.2   4.4 28.2   3.5
Six Mile Canyon 9/4/26 1320 68.9   2.3 34   5 39.0   2.0 15.9   0.1 SW | 231 24.5   0.5 SW | 224 0.00 12.0   0.1 73.5   1.4 0.00 61.9   7.4 70.9   2.6 24.5   0.6
Mt Rose Highway 9/4/26 1320 50.9   3.6 67   14 40.4   2.8 2.8   6.4 SSW | 206 11.4   10.1 SSW | 210 0.00 7.4   0.0 59.8   1.0 0.03 44.9   1.5 51.3   4.6 31.3   2.7
Pleasant Valley 9/4/26 1320 63.7   2.5 45   8 42.2   2.5 15.2   3.8 SW | 220 24.0   5.7 S | 183 0.00 2.3   0.0 74.0   0.2 0.00 56.6   0.5 64.4   3.2 27.1   9.1
New Washoe City 9/4/26 1320 63.2   2.3 44   5 40.6   1.0 16.9   0.8 SW | 218 26.1   0.9 SW | 231 0.00 3.4   0.1 71.1   0.8 0.00 57.6   4.8 63.9   2.4 30.8   1.2
Franktown Creek 9/4/26 1320 62.7   2.9 48   7 42.8   1.4 6.4   1.8 SSW | 206 19.2   1.5 SSW | 193 0.00 7.0   0.1 70.2   0.5 0.00 55.1   1.0 63.6   3.0 25.5   7.4
Musgrove Creek 9/4/26 1320 61.3   0.9 47   3 41.2   1.1 2.9   0.7 SSW | 193 10.2   1.5 WSW | 252 0.00 10.3   0.1 59.9   0.3 0.01 51.9   1.1 62.2   1.4 18.5   4.1
East Carson 11/23/24 0110 28.6   28.4 - - 4.7   11.0 SW | 220 14.7   10.1 SW | 219 0.02 - 50.9   0.1 0.02 -25.9   79.1 42.9   14.6 16.0   10.7
Kings Canyon 9/4/26 1320 60.5   3.7 48   8 41.0   1.6 9.1   1.6 SW | 224 17.8   6.2 SW | 227 0.00 4.1   0.0 66.9   0.1 0.00 57.1   3.0 61.4   4.2 26.0   3.5
Carson City (Voltaire Canyon) 9/4/26 1320 62.0   4.9 47   10 41.4   2.0 17.6   1.9 SW | 218 25.3   4.7 SW | 218 0.00 2.8   0.0 76.7   0.7 0.00 58.8   5.5 63.2   5.7 37.1   2.4
Jacks Valley 9/4/26 1320 61.5   4.1 47   9 41.0   2.1 15.0   3.3 W | 259 24.5   1.1 W | 269 0.00 4.5   0.0 72.5   2.0 0.00 57.7   3.4 61.9   6.0 29.8   9.6
Genoa 9/4/26 1320 62.6   6.8 50   15 43.8   3.3 1.9   0.7 SW | 224 7.8   0.1 SSE | 157 0.00 2.3   0.2 68.5   5.2 0.00 59.7   4.3 62.9   7.9 13.8   5.2
South Genoa (Walleys Hot Springs) 9/4/26 1320 63.8   5.1 46   12 42.6   3.3 9.6   2.7 W | 260 17.9   2.6 WSW | 256 0.00 4.9   0.2 73.4   0.2 0.00 60.5   12.1 64.5   6.1 20.4   6.6
SW Gardnerville (HWY 88) 9/4/26 1320 64.0   4.7 44   11 41.6   2.8 17.3   4.4 SSW | 205 27.3   8.4 SSW | 207 0.00 2.8   0.0 67.8   0.3 0.00 59.6   13.6 64.9   5.9 31.9   3.4
Sheridan 9/4/26 1320 64.2   6.0 43   12 41.0   2.9 7.3   0.4 SE | 136 14.4   3.7 SE | 133 0.00 1.1   0.0 70.5   0.3 0.00 59.2   10.1 64.5   8.2 22.6   2.9
Ruhenstroth 9/4/26 1320 66.7   1.9 36   7 39.1   3.5 16.0   0.6 SW | 220 27.1   1.5 SSW | 212 0.00 6.8   0.1 71.2   1.7 0.00 58.7   4.5 67.3   2.0 31.7   1.7
Double Spring 9/4/26 1320 64.6   0.4 36   3 37.0   2.0 13.5   1.5 W | 260 27.6   8.0 WSW | 250 0.00 24.9   0.1 71.3   3.4 0.00 54.7   16.0 65.8   0.1 28.2   1.1
North Topaz Lake 9/4/26 1320 68.9   0.2 31   2 37.2   1.7 12.1   1.9 SW | 216 22.8   0.9 SSW | 204 0.00 7.8   0.0 81.5   1.6 0.00 58.5   4.0 70.6   0.7 30.9   2.4
Wild Oat Mountain 9/4/26 1320 67.1   0.4 31   0 35.6   0.7 19.4   6.3 SW | 234 29.9   2.2 SW | 236 0.00 5.7   0.0 70.5   0.8 0.00 56.5   4.5 68.0   0.1 35.5   5.3
Smith Valley 9/4/26 1320 74.3   1.1 26   1 37.1   0.3 8.2   2.8 S | 175 15.4   8.6 SSE | 164 0.00 2.8   0.0 75.4   1.4 0.00 62.6   5.4 75.0   0.8 20.7   7.8
Pine Grove Mountain 9/4/26 1320 57.9   3.4 37   6 31.8   1.8 8.3   1.3 NW | 323 18.1   4.0 NNW | 330 0.00 6.4   0.3 62.7   0.1 0.00 45.6   0.4 59.7   2.2 22.1   0.0
Paradise Hill 9/4/26 1320 63.7   6.8 51   20 45.2   7.1 16.2   1.6 WNW | 295 26.3   1.1 WNW | 301 0.00 9.8   0.1 72.7   0.8 0.00 53.1   2.7 64.7   6.6 26.3   1.5
Winnemucca 9/4/26 1320 65.4   4.6 48   19 45.2   9.1 9.2   2.7 NNW | 331 14.7   6.8 NNW | 336 0.00 5.6   0.0 71.9   0.4 0.00 52.1   2.9 66.3   5.4 15.2   6.3
NE Elko 9/4/26 1320 74.2   2.9 24   1 34.8   1.6 8.4   1.4 SSW | 212 16.0   2.9 SW | 232 0.00 5.6   0.0 70.2   0.2 0.00 44.9   7.3 75.1   1.4 23.8   1.9
North Elko 9/4/26 1320 70.8   0.5 28   4 36.6   4.3 2.9   12.2 ESE | 117 7.3   19.1 SW | 215 0.00 24.4   0.1 70.4   0.1 0.00 53.7   0.2 71.3   0.5 15.8   10.7
South Elko 9/4/26 1320 69.4   1.6 29   4 35.6   5.0 6.4   4.0 NW | 320 13.8   5.5 SSW | 208 0.00 13.5   0.0 67.2   0.7 0.00 53.2   0.4 110.0 17.0   8.7
Lamoille 9/4/26 1320 70.6   1.9 28   3 35.8   4.6 9.2   8.1 SW | 227 17.9   6.7 SSW | 208 0.00 6.2   0.0 66.0   0.4 0.00 46.6   6.3 72.2   2.7 20.9   5.3
Reid Gardner Sub 9/4/26 1320 93.9   0.0 18   5 43.7   8.7 11.3   1.4 SSE | 150 19.5   1.4 S | 172 0.00 24.6   1.2 85.7   0.4 0.00 59.8   4.6 95.2   0.3 28.0   2.0
Corn Creek 9/4/26 1320 88.4   0.1 17   1 38.3   2.2 23.7   2.2 E | 85 38.1   5.3 ENE | 72 0.00 3.0   0.0 87.5   0.7 0.00 70.3   1.7 88.9   0.4 40.0   7.2
Lucky Strike 9/4/26 1320 76.5   1.5 19   3 30.7   3.4 21.6   15.6 SSE | 149 32.7   12.9 SE | 140 0.00 3.1   0.1 81.8   0.3 0.00 62.9   0.3 77.5   2.4 35.9   13.0
Lower Angel Peak 9/4/26 1320 72.6   0.0 23   3 32.9   3.8 13.1   7.1 ESE | 118 24.2   11.5 ESE | 117 0.00 3.1   0.1 71.2   0.1 0.00 55.9   2.2 74.8   1.2 25.2   8.2
Angel Peak 9/4/26 1320 62.6   1.1 29   8 29.6   7.3 20.4   9.8 S | 178 32.0   13.3 SSW | 194 0.00 2.5   0.0 66.4   0.8 0.00 54.4   0.6 64.8   0.2 41.9   19.1
Upper Kyle Canyon 9/4/26 1320 64.1   2.2 29   7 31.4   5.1 10.5   5.7 ESE | 104 27.7   13.7 E | 83 0.00 7.7   0.0 73.6   0.0 0.00 56.6   1.1 67.7   1.8 27.7   5.1
Mt Charleston 9/4/26 1310 65.8   0.0 28   5 31.4   5.2 3.1   3.4 SW | 215 14.4   3.5 W | 263 0.00 13.2   0.0 66.9   0.6 0.00 56.2   1.8 67.5   1.4 28.7   1.9
Mid Kyle Canyon 9/4/26 1320 71.7   3.3 24   7 33.2   5.8 15.5   6.2 S | 187 26.3   0.8 SSW | 195 0.00 5.8   0.0 72.8   0.4 0.00 64.0   7.4 75.2   1.3 35.0   3.0
Blue Diamond 9/4/26 1320 85.3   0.0 17   2 35.8   2.3 8.3   2.5 SSE | 168 18.1   2.9 SSE | 154 0.00 1.2   0.0 85.6   0.3 0.00 70.7   3.8 86.6   0.5 27.8   5.6
Artesian Sub 9/4/26 1320 94.7   0.7 14   1 38.0   1.8 4.8   5.0 S | 172 14.3   3.0 SSE | 150 0.00 11.7   0.0 92.4   0.5 0.00 78.1   1.2 96.1   1.0 19.5   3.7
North Henderson 9/4/26 1310 95.6   0.6 12   1 35.0   2.0 14.2   3.9 SE | 141 23.2   5.7 SSE | 149 0.00 10.6   0.2 95.6   0.4 0.00 79.1   1.3 96.2   0.4 33.4   11.0
Sandy Valley 9/4/26 1320 87.2   2.3 17   1 37.7   0.2 8.8   1.0 SW | 231 14.8   3.6 WSW | 245 0.00 7.6   0.2 85.4   0.0 0.00 68.4   0.6 88.5   2.6 20.1   0.2
Searchlight 9/4/26 1320 85.2   0.7 19   4 38.8   6.3 18.2   2.7 SSE | 162 28.6   2.5 SSE | 153 0.00 5.7   0.1 82.9   0.7 0.00 64.8   0.6 86.2   1.0 31.0   5.0
Laughlin 9/4/26 1310 99.0   2.4 22   9 53.0   17.1 15.3   6.7 S | 170 24.5   9.9 SSE | 156 0.00 4.4   0.0 97.0   0.6 0.00 78.8   1.4 99.9   2.7 27.2   5.6
31Mission Hills 9/4/26 1320 90.4   0.2 12   1 31.2   1.2 16.6   0.7 S | 177 25.3   4.7 SSE | 165 0.00 6.5   0.2 89.2   0.7 0.00 73.8   0.4 91.2   0.3 31.4   1.4
32 Enterprise Sierra Cliffs 9/4/26 1320 87.2   0.8 15   1 33.5   2.7 6.0   11.3 SSE | 164 17.1   10.3 SE | 131 0.00 1.4   0.0 87.1   0.5 0.00 69.6   3.2 87.6   0.1 23.1   4.3
29 Calico Basin 9/4/26 1320 84.0   0.3 14   1 30.4   2.2 13.9   2.4 SSW | 207 24.6   0.2 SW | 216 0.00 2.3   0.1 81.9   0.4 0.00 68.3   0.6 84.9   0.1 26.4   0.9
28 Indian Springs 9/4/26 1320 89.0   5.5 13   1 32.7   2.9 11.8   6.0 ESE | 108 22.5   10.6 ESE | 115 0.00 4.4   0.0 83.4   0.8 0.00 65.0   3.4 90.1   6.1 25.5   13.5
30 Jean 9/4/26 1320 88.2   2.1 12   0 29.8   1.1 12.0   4.7 SSW | 197 20.6   4.3 SSW | 206 0.00 4.9   0.1 85.5   0.5 0.00 67.3   1.8 89.2   2.4 27.0   0.2
VC Highlands NW 9/4/26 1320 55.8   5.6 50   11 37.3   0.9 6.5   0.8 WSW | 238 17.9   0.5 S | 188 0.00 1.6   0.0 63.8   3.1 0.00 51.2   2.5 55.9   6.1 23.7   2.8
Glenbrook-Spooner Summit 9/4/26 1210 49.3   5.8 67   22 38.7   4.6 6.9   3.6 W | 265 19.5   9.9 SW | 234 0.00 7.7   0.0 63.6   1.0 0.00 46.7   0.4 49.8   6.9 23.8   5.8
Hobo Hot Springs 9/4/26 1320 64.8   4.8 40   10 40.0   2.9 9.2   5.2 SW | 214 16.6   11.9 SW | 217 0.00 1.1   0.1 69.0   0.8 0.00 59.8   10.2 65.0   5.9 24.8   13.2
Jack Valley Ranch 2 9/4/26 1320 61.2   4.3 45   10 39.7   2.3 12.0   0.5 SW | 235 22.0   2.4 SW | 221 0.00 2.1   0.0 71.9   0.0 0.00 57.0   2.9 62.1   5.5 26.3   3.9
Genoa North 2 9/4/26 1320 61.9   6.3 46   14 40.7   3.8 8.3   2.0 SW | 228 19.5   1.0 SW | 230 0.00 0.8   0.0 71.0   0.5 0.00 58.3   4.8 62.3   7.5 23.7   10.3
Mottsville 2 9/4/26 1320 64.2   3.5 40   9 39.5   3.5 6.6   0.7 S | 182 14.2   2.9 SSW | 207 0.00 1.3   0.1 70.1   0.7 0.00 59.1   9.6 64.6   6.6 28.4   3.7
Kingsbury Village 3 9/4/26 1320 46.8   4.7 71   19 38.1   3.4 1.7   2.3 SW | 234 6.1   3.7 WNW | 298 0.00 3.2   0.1 58.2   1.1 0.00 43.2   2.8 47.3   8.5 11.9   4.5
Kingsbury-Benjamin Dr 2 9/4/26 1320 48.7   8.0 68   24 38.7   3.4 2.9   2.0 W | 265 15.5   3.5 SSW | 208 0.00 2.9   0.0 63.3   0.7 0.00 44.9   3.0 49.0   9.3 15.5   9.4
Smith Valley-Wellington 9/4/26 1320 73.3   0.0 25   2 35.6   2.0 10.2   2.4 WSW | 244 22.4   3.7 W | 271 0.00 3.5   0.1 77.7   0.4 0.00 60.7   3.3 74.4   0.7 23.0   3.1
Sheridan South 2 9/4/26 1320 63.8   6.3 42   11 40.4   2.5 8.5   1.2 SSE | 158 19.6   3.0 S | 189 0.00 0.4   0.0 69.9   0.2 0.00 58.7   11.4 64.2   6.7 27.2   1.7
Silver Springs 9/4/26 1320 72.1   2.1 29   6 38.4   4.5 21.6   5.0 WSW | 254 38.0   12.0 WSW | 239 0.00 4.9   0.0 75.4   0.4 0.00 62.9   8.7 72.8   2.2 38.0   2.0
Fernley 9/4/26 1320 70.3   2.7 31   6 37.9   3.7 17.3   3.3 WNW | 285 27.3   2.6 WNW | 290 0.00 3.1   0.0 74.1   0.5 0.00 59.3   5.4 71.0   3.5 27.3   3.9
Spanish Springs 9/4/26 1310 67.3   1.0 34   1 38.1   0.4 9.0   3.2 SW | 230 24.5   1.7 WSW | 258 0.00 10.0   0.1 72.5   0.5 0.00 57.6   0.1 67.9   2.0 24.5   0.9
Suttcliffe South 2 9/4/26 1320 59.0   10.3 71   40 49.5   12.1 14.1   0.3 NNE | 16 22.0   2.4 NNE | 13 0.00 4.0   0.1 69.3   2.5 0.00 53.4   3.2 61.6   9.5 24.7   10.4
Lemmon Valley North 9/4/26 1320 63.1   0.9 44   5 40.9   2.3 14.6   3.1 SSW | 202 27.7   1.4 SSW | 209 0.00 2.0   0.0 68.8   0.2 0.02 52.2   3.3 63.7   1.9 28.8   3.6
Lemmon Valley NW 3 9/4/26 1320 64.1   2.9 41   6 39.8   1.1 13.7   0.6 SW | 223 24.1   0.2 SW | 215 0.00 1.2   0.0 71.6   0.9 0.00 53.7   0.8 65.6   2.2 31.3   2.4
VC Highlands North 9/4/26 1320 58.9   3.5 45   7 37.6   1.3 10.6   0.4 SW | 233 20.9   0.9 WSW | 258 0.00 4.6   0.2 71.4   9.7 0.00 53.2   3.0 59.7   3.6 25.8   2.4
Upper Voltaire Cyn 9/4/26 1320 57.8   4.6 49   11 38.7   2.1 14.3   3.8 SSW | 207 25.8   3.6 SW | 215 0.00 1.1   0.0 66.8   0.6 0.00 54.7   1.2 58.4   5.6 31.3   1.5
Yerington NW 9/4/26 1320 69.5   4.4 34   9 40.3   3.6 4.4   8.8 NNE | 28 7.9   13.4 NNE | 22 0.00 7.1   0.0 72.2   0.3 0.00 60.1   10.7 71.4   2.9 16.0   5.6
Spanish Springs SW 9/4/26 1320 67.0   0.1 35   1 38.2   0.6 15.2   2.3 SW | 224 24.1   3.4 SSW | 211 0.00 1.4   0.1 72.3   0.4 0.00 57.3   0.9 67.8   1.5 24.1   11.1
Cosgrave 2 8/27/26 0750 62.9   4.1 34   3 33.8   1.4 2.6   0.5 WSW | 246 4.1   1.0 W | 267 0.00 3.8   0.1 77.4   2.9 0.00 62.7   3.3 77.4   3.5 11.2   3.9
Winnemucca-Grass Valley 2 9/4/26 1320 66.4   3.1 43   16 43.5   9.2 13.7   9.1 NNW | 345 19.4   9.9 NNW | 342 0.00 7.6   0.1 66.4   0.6 0.00 48.6   0.4 67.2   2.9 19.4   3.5
Winnemucca-Dutch Flat Rd 9/4/26 1320 66.4   3.2 41   14 42.4   8.0 7.3   3.1 W | 279 14.5   6.8 NW | 313 0.00 6.1   0.0 72.0   0.6 0.00 50.8   3.4 67.9   3.2 17.3   7.0
Paradise Valley 2 9/4/26 1320 66.6   0.9 39   8 40.9   4.7 8.8   2.5 W | 273 18.9   5.2 NW | 305 0.00 12.3   0.0 70.1   0.5 0.00 48.4   3.9 67.4   0.6 20.6   3.5
Golconda 2 9/4/26 1320 66.2   4.4 41   15 41.6   7.7 11.8   3.8 NW | 320 17.8   2.6 NW | 325 0.00 1.9   0.0 74.9   0.8 0.00 50.8   2.3 66.8   5.5 21.6   4.1
Battle Mountain - South 9/4/26 1320 74.4   1.2 25   3 35.9   4.6 10.6   0.8 WSW | 252 19.2   2.1 W | 260 0.00 9.3   0.0 72.2   0.7 0.00 50.9   1.2 75.1   0.4 19.6   5.5
Geiger Summit 9/4/26 1320 53.8   5.5 100   0 53.8   5.5 11.4   5.2 SSW | 211 21.7   5.2 SW | 221 0.00 5.9   0.2 61.6   0.9 0.00 50.2   3.3 55.6   4.2 28.8   5.0
Combs Canyon 3 9/4/26 1320 65.8   2.3 38   5 39.6   1.5 12.3   0.8 SW | 225 23.0   3.1 SW | 236 0.00 1.0   0.0 72.7   0.5 0.00 58.7   4.5 66.8   2.9 27.0   2.0
Clear Creek 9/4/26 1320 58.0   4.8 49   11 38.7   1.9 8.6   3.2 SW | 220 19.0   7.6 SW | 235 0.00 3.4   0.0 67.0   1.0 0.00 55.0   1.8 58.3   6.6 29.7   1.5
Eastlake 2 9/4/26 1320 64.4   0.6 40   3 39.8   1.4 12.1   0.2 SSE | 156 20.6   2.1 SSE | 158 0.00 3.4   0.0 70.0   0.5 0.00 58.0   3.4 64.8   1.3 26.0   1.9
Lovelock-Colado 2 9/4/26 1320 70.2   4.4 35   13 41.2   7.9 3.1   7.9 SSW | 202 7.2   12.5 S | 174 0.00 - 72.3   0.5 0.00 45.5   8.6 71.4   4.2 18.8   1.2
Spanish Springs NW 9/4/26 1320 66.0   0.6 37   2 38.9   0.6 10.5   2.2 SW | 223 20.6   2.7 SSW | 200 0.00 12.2   0.1 67.3   1.1 0.00 58.4   1.2 66.5   0.9 20.6   5.0
Battle Mountain NW 9/4/26 1320 70.9   0.6 29   5 37.1   3.8 7.9   0.3 NW | 315 12.8   3.4 WNW | 299 0.00 8.6   0.1 74.5   1.3 0.00 54.5   2.2 72.2   0.2 18.5   2.0
Austin 2 9/4/26 1220 69.0   1.6 25   5 31.4   6.3 9.6   1.0 W | 280 17.5   3.1 WNW | 296 0.00 2.6   0.0 75.9   1.2 0.00 37.6   0.8 70.2   1.4 24.7   4.1
Elko-Osino 9/4/26 1320 73.4   1.1 23   3 33.6   3.8 8.9   5.9 SSW | 202 16.4   10.9 SSW | 198 0.00 1.4   0.0 74.3   0.2 0.00 44.2   7.9 74.3   1.1 18.0   9.3
Elko-Bill Fishpond 2 9/4/26 1320 71.3   0.4 27   6 35.3   6.7 4.6   11.1 WNW | 297 11.6   11.3 W | 279 0.00 3.4   0.0 67.2   0.2 0.00 48.4   3.3 72.0   0.5 14.8   12.7
Spring Creek SE 2 9/4/26 1320 73.5   2.4 20   0 30.2   2.4 14.6   3.0 SW | 232 26.0   5.3 WSW | 241 0.00 0.2   0.0 65.9   0.2 0.00 44.2   7.1 74.2   2.5 28.4   4.8
Spring Creek NW 9/4/26 1310 71.9   0.8 24   3 33.6   3.9 9.6   2.0 S | 185 20.2   4.2 S | 179 0.00 2.1   0.0 68.9   0.5 0.00 49.2   2.6 73.1   0.9 20.6   3.8
Elko-Moleen 9/4/26 1320 74.0   1.6 24   3 35.0   4.4 4.3   4.6 SSW | 202 13.2   1.0 SW | 228 0.00 6.2   0.1 73.8   0.1 0.00 43.6   3.6 74.6   0.8 13.2   12.3
Elko-West 9/4/26 1320 73.9   1.1 25   3 35.5   4.3 8.6   2.5 SW | 235 17.1   0.2 W | 265 0.00 32.7   0.1 65.0   0.4 0.00 41.6   3.9 75.1   0.9 17.5   9.1
Elko-Adobe Creek 9/4/26 1320 66.4   2.7 28   2 32.8   3.9 8.0   7.2 SW | 224 14.2   12.9 W | 278 0.00 18.4   0.0 66.4   0.0 0.00 48.6   0.2 67.2   1.5 20.1   14.3
Tuscarora SW 9/4/26 1320 66.3   2.2 31   3 35.1   4.3 8.7   6.5 W | 263 15.5   10.6 W | 265 0.00 6.7   0.0 69.3   0.4 0.00 42.7   4.5 66.8   1.5 21.2   4.8
Elko-Monument Peak 9/4/26 1320 67.7   0.0 28   4 33.9   4.0 8.1   3.6 SW | 225 14.3   8.1 WSW | 242 0.00 4.0   0.2 67.9   0.2 0.00 38.0   6.2 69.0   0.7 20.7   8.7
Wild Horse 9/4/26 1320 62.8   1.3 35   6 34.4   3.9 6.8   8.4 WSW | 242 12.7   13.8 WSW | 246 0.00 4.5   0.0 64.2   0.5 0.00 49.2   1.5 63.3   2.4 20.5   7.8
Max     99.0 100 53.8 27.8 - 38.1 - 0.00 43.4 97.0 0.22 79.1 110.0 41.9
Avg     66.3 40 38.8 10.3 - 19.5 - 0.00 7.0 70.9 - - - -
Min     46.8 12 29.6 1.2 - 6.0 - 0.00 0.2 32.0 0.00 37.6 47.3 11.9